sensor_id;sensor_type;location;lat;lon;timestamp;temperature;humidity
65369;HTU21D;51970;53.484;49.488;2023-07-20T00:02:03;16.66;68.84
65369;HTU21D;51970;53.484;49.488;2023-07-20T00:04:31;16.70;69.10
65369;HTU21D;51970;53.484;49.488;2023-07-20T00:06:58;16.74;68.86
65369;HTU21D;51970;53.484;49.488;2023-07-20T00:09:26;16.76;68.58
65369;HTU21D;51970;53.484;49.488;2023-07-20T00:11:53;16.74;68.91
65369;HTU21D;51970;53.484;49.488;2023-07-20T00:14:19;16.74;69.70
65369;HTU21D;51970;53.484;49.488;2023-07-20T00:16:46;16.77;69.87
65369;HTU21D;51970;53.484;49.488;2023-07-20T00:19:15;16.80;70.17
65369;HTU21D;51970;53.484;49.488;2023-07-20T00:21:42;16.82;70.38
65369;HTU21D;51970;53.484;49.488;2023-07-20T00:24:08;16.84;70.61
65369;HTU21D;51970;53.484;49.488;2023-07-20T00:26:35;16.91;69.65
65369;HTU21D;51970;53.484;49.488;2023-07-20T00:29:01;16.96;70.12
65369;HTU21D;51970;53.484;49.488;2023-07-20T00:31:27;16.96;70.13
65369;HTU21D;51970;53.484;49.488;2023-07-20T00:33:55;16.98;70.28
65369;HTU21D;51970;53.484;49.488;2023-07-20T00:36:21;16.99;70.03
65369;HTU21D;51970;53.484;49.488;2023-07-20T00:38:47;16.99;70.07
65369;HTU21D;51970;53.484;49.488;2023-07-20T00:41:13;16.98;70.19
65369;HTU21D;51970;53.484;49.488;2023-07-20T00:43:40;16.99;70.32
65369;HTU21D;51970;53.484;49.488;2023-07-20T00:46:08;17.01;70.14
65369;HTU21D;51970;53.484;49.488;2023-07-20T00:48:34;17.02;69.92
65369;HTU21D;51970;53.484;49.488;2023-07-20T00:51:01;17.03;69.38
65369;HTU21D;51970;53.484;49.488;2023-07-20T00:53:28;17.06;69.07
65369;HTU21D;51970;53.484;49.488;2023-07-20T00:55:55;17.10;69.05
65369;HTU21D;51970;53.484;49.488;2023-07-20T00:58:22;17.14;68.84
65369;HTU21D;51970;53.484;49.488;2023-07-20T01:00:49;17.17;68.87
65369;HTU21D;51970;53.484;49.488;2023-07-20T01:03:15;17.18;69.22
65369;HTU21D;51970;53.484;49.488;2023-07-20T01:05:54;17.26;69.00
65369;HTU21D;51970;53.484;49.488;2023-07-20T01:14:09;18.72;63.35
65369;HTU21D;51970;53.484;49.488;2023-07-20T01:16:36;19.13;62.49
65369;HTU21D;51970;53.484;49.488;2023-07-20T01:19:02;19.45;61.51
65369;HTU21D;51970;53.484;49.488;2023-07-20T01:22:07;19.58;61.08
65369;HTU21D;51970;53.484;49.488;2023-07-20T01:27:32;20.10;59.55
65369;HTU21D;51970;53.484;49.488;2023-07-20T01:33:07;20.57;58.19
65369;HTU21D;51970;53.484;49.488;2023-07-20T01:35:36;21.08;56.68
65369;HTU21D;51970;53.484;49.488;2023-07-20T01:38:03;21.18;56.54
65369;HTU21D;51970;53.484;49.488;2023-07-20T01:40:31;21.52;55.33
65369;HTU21D;51970;53.484;49.488;2023-07-20T01:42:57;22.06;54.06
65369;HTU21D;51970;53.484;49.488;2023-07-20T01:45:23;22.24;53.31
65369;HTU21D;51970;53.484;49.488;2023-07-20T01:47:50;22.23;53.04
65369;HTU21D;51970;53.484;49.488;2023-07-20T01:50:16;22.42;52.30
65369;HTU21D;51970;53.484;49.488;2023-07-20T01:52:42;22.67;51.74
65369;HTU21D;51970;53.484;49.488;2023-07-20T01:55:09;23.00;50.82
65369;HTU21D;51970;53.484;49.488;2023-07-20T01:57:35;23.45;49.13
65369;HTU21D;51970;53.484;49.488;2023-07-20T02:00:01;23.97;47.84
65369;HTU21D;51970;53.484;49.488;2023-07-20T02:02:28;24.00;47.89
65369;HTU21D;51970;53.484;49.488;2023-07-20T02:04:54;23.61;48.76
65369;HTU21D;51970;53.484;49.488;2023-07-20T02:07:21;21.39;54.60
65369;HTU21D;51970;53.484;49.488;2023-07-20T02:09:47;21.57;55.01
65369;HTU21D;51970;53.484;49.488;2023-07-20T02:12:13;21.94;53.52
65369;HTU21D;51970;53.484;49.488;2023-07-20T02:14:40;22.32;52.59
65369;HTU21D;51970;53.484;49.488;2023-07-20T02:17:06;22.54;51.84
65369;HTU21D;51970;53.484;49.488;2023-07-20T02:19:32;22.70;51.39
65369;HTU21D;51970;53.484;49.488;2023-07-20T02:21:58;23.35;50.05
65369;HTU21D;51970;53.484;49.488;2023-07-20T02:24:25;23.89;48.53
65369;HTU21D;51970;53.484;49.488;2023-07-20T02:26:52;24.01;48.41
65369;HTU21D;51970;53.484;49.488;2023-07-20T02:29:18;24.54;46.89
65369;HTU21D;51970;53.484;49.488;2023-07-20T02:31:45;24.34;47.41
65369;HTU21D;51970;53.484;49.488;2023-07-20T02:34:11;24.71;46.73
65369;HTU21D;51970;53.484;49.488;2023-07-20T02:36:37;24.84;46.51
65369;HTU21D;51970;53.484;49.488;2023-07-20T02:39:04;25.15;45.86
65369;HTU21D;51970;53.484;49.488;2023-07-20T02:41:33;25.42;44.96
65369;HTU21D;51970;53.484;49.488;2023-07-20T02:44:00;24.89;46.13
65369;HTU21D;51970;53.484;49.488;2023-07-20T02:46:27;24.54;46.54
65369;HTU21D;51970;53.484;49.488;2023-07-20T02:48:56;24.12;47.38
65369;HTU21D;51970;53.484;49.488;2023-07-20T02:51:22;24.61;46.76
65369;HTU21D;51970;53.484;49.488;2023-07-20T02:53:48;24.90;46.10
65369;HTU21D;51970;53.484;49.488;2023-07-20T02:56:14;24.72;46.43
65369;HTU21D;51970;53.484;49.488;2023-07-20T02:58:42;24.80;46.09
65369;HTU21D;51970;53.484;49.488;2023-07-20T03:01:12;24.98;45.50
65369;HTU21D;51970;53.484;49.488;2023-07-20T03:03:38;24.36;47.20
65369;HTU21D;51970;53.484;49.488;2023-07-20T03:06:05;24.24;47.80
65369;HTU21D;51970;53.484;49.488;2023-07-20T03:08:31;24.16;48.04
65369;HTU21D;51970;53.484;49.488;2023-07-20T03:10:57;24.28;47.60
65369;HTU21D;51970;53.484;49.488;2023-07-20T03:13:24;24.71;46.25
65369;HTU21D;51970;53.484;49.488;2023-07-20T03:15:52;25.38;44.64
65369;HTU21D;51970;53.484;49.488;2023-07-20T03:18:18;25.75;43.70
65369;HTU21D;51970;53.484;49.488;2023-07-20T03:20:44;26.36;42.13
65369;HTU21D;51970;53.484;49.488;2023-07-20T03:23:12;26.28;42.10
65369;HTU21D;51970;53.484;49.488;2023-07-20T03:25:38;26.15;42.77
65369;HTU21D;51970;53.484;49.488;2023-07-20T03:28:04;26.89;41.36
65369;HTU21D;51970;53.484;49.488;2023-07-20T03:30:30;26.67;41.43
65369;HTU21D;51970;53.484;49.488;2023-07-20T03:32:57;26.02;43.21
65369;HTU21D;51970;53.484;49.488;2023-07-20T03:35:23;26.28;42.41
65369;HTU21D;51970;53.484;49.488;2023-07-20T03:37:50;26.68;41.47
65369;HTU21D;51970;53.484;49.488;2023-07-20T03:40:16;26.96;40.65
65369;HTU21D;51970;53.484;49.488;2023-07-20T03:42:42;25.24;44.77
65369;HTU21D;51970;53.484;49.488;2023-07-20T03:45:09;23.03;50.60
65369;HTU21D;51970;53.484;49.488;2023-07-20T03:47:35;22.01;53.99
65369;HTU21D;51970;53.484;49.488;2023-07-20T03:50:01;21.16;56.62
65369;HTU21D;51970;53.484;49.488;2023-07-20T03:52:29;20.76;57.79
65369;HTU21D;51970;53.484;49.488;2023-07-20T03:54:55;20.63;58.45
65369;HTU21D;51970;53.484;49.488;2023-07-20T03:57:21;20.64;57.73
65369;HTU21D;51970;53.484;49.488;2023-07-20T03:59:48;20.51;57.80
65369;HTU21D;51970;53.484;49.488;2023-07-20T04:02:14;20.36;58.37
65369;HTU21D;51970;53.484;49.488;2023-07-20T04:04:41;20.40;58.70
65369;HTU21D;51970;53.484;49.488;2023-07-20T04:07:07;20.39;57.89
65369;HTU21D;51970;53.484;49.488;2023-07-20T04:09:34;20.26;57.82
65369;HTU21D;51970;53.484;49.488;2023-07-20T04:12:00;20.29;58.27
65369;HTU21D;51970;53.484;49.488;2023-07-20T04:14:27;20.39;58.01
65369;HTU21D;51970;53.484;49.488;2023-07-20T04:16:53;20.51;57.61
65369;HTU21D;51970;53.484;49.488;2023-07-20T04:19:19;20.40;57.22
65369;HTU21D;51970;53.484;49.488;2023-07-20T04:21:46;20.31;57.64
65369;HTU21D;51970;53.484;49.488;2023-07-20T04:24:12;20.54;56.97
65369;HTU21D;51970;53.484;49.488;2023-07-20T04:26:38;20.58;56.61
65369;HTU21D;51970;53.484;49.488;2023-07-20T04:29:04;20.65;56.87
65369;HTU21D;51970;53.484;49.488;2023-07-20T04:31:31;20.70;56.65
65369;HTU21D;51970;53.484;49.488;2023-07-20T04:33:59;20.68;56.87
65369;HTU21D;51970;53.484;49.488;2023-07-20T04:36:25;20.56;56.80
65369;HTU21D;51970;53.484;49.488;2023-07-20T04:38:51;20.40;57.28
65369;HTU21D;51970;53.484;49.488;2023-07-20T04:41:18;20.45;56.96
65369;HTU21D;51970;53.484;49.488;2023-07-20T04:43:44;20.51;56.86
65369;HTU21D;51970;53.484;49.488;2023-07-20T04:46:11;20.42;57.02
65369;HTU21D;51970;53.484;49.488;2023-07-20T04:48:37;20.45;56.75
65369;HTU21D;51970;53.484;49.488;2023-07-20T04:51:04;20.46;57.18
65369;HTU21D;51970;53.484;49.488;2023-07-20T04:53:30;20.54;56.64
65369;HTU21D;51970;53.484;49.488;2023-07-20T04:55:57;20.55;57.26
65369;HTU21D;51970;53.484;49.488;2023-07-20T04:58:23;20.72;56.55
65369;HTU21D;51970;53.484;49.488;2023-07-20T05:00:50;20.77;55.86
65369;HTU21D;51970;53.484;49.488;2023-07-20T05:03:16;20.72;56.21
65369;HTU21D;51970;53.484;49.488;2023-07-20T05:05:43;20.92;56.06
65369;HTU21D;51970;53.484;49.488;2023-07-20T05:08:09;21.15;54.52
65369;HTU21D;51970;53.484;49.488;2023-07-20T05:10:35;21.32;54.65
65369;HTU21D;51970;53.484;49.488;2023-07-20T05:13:02;21.42;54.21
65369;HTU21D;51970;53.484;49.488;2023-07-20T05:15:28;21.39;54.67
65369;HTU21D;51970;53.484;49.488;2023-07-20T05:17:54;21.51;54.44
65369;HTU21D;51970;53.484;49.488;2023-07-20T05:20:20;21.62;53.54
65369;HTU21D;51970;53.484;49.488;2023-07-20T05:22:48;21.49;53.14
65369;HTU21D;51970;53.484;49.488;2023-07-20T05:25:14;21.64;52.95
65369;HTU21D;51970;53.484;49.488;2023-07-20T05:27:44;21.81;52.71
65369;HTU21D;51970;53.484;49.488;2023-07-20T05:30:11;22.02;52.40
65369;HTU21D;51970;53.484;49.488;2023-07-20T05:32:37;22.05;52.04
65369;HTU21D;51970;53.484;49.488;2023-07-20T05:35:04;22.16;52.49
65369;HTU21D;51970;53.484;49.488;2023-07-20T05:37:31;22.21;51.74
65369;HTU21D;51970;53.484;49.488;2023-07-20T05:39:57;22.36;50.68
65369;HTU21D;51970;53.484;49.488;2023-07-20T05:42:23;22.32;50.14
65369;HTU21D;51970;53.484;49.488;2023-07-20T05:44:50;22.33;50.54
65369;HTU21D;51970;53.484;49.488;2023-07-20T05:47:18;22.57;50.63
65369;HTU21D;51970;53.484;49.488;2023-07-20T05:49:45;22.81;49.57
65369;HTU21D;51970;53.484;49.488;2023-07-20T05:52:11;22.87;49.28
65369;HTU21D;51970;53.484;49.488;2023-07-20T05:54:37;22.94;47.73
65369;HTU21D;51970;53.484;49.488;2023-07-20T05:57:04;22.70;48.79
65369;HTU21D;51970;53.484;49.488;2023-07-20T05:59:31;22.58;48.64
65369;HTU21D;51970;53.484;49.488;2023-07-20T06:01:57;22.69;48.29
65369;HTU21D;51970;53.484;49.488;2023-07-20T06:04:24;22.69;47.56
65369;HTU21D;51970;53.484;49.488;2023-07-20T06:06:50;22.83;47.77
65369;HTU21D;51970;53.484;49.488;2023-07-20T06:09:16;22.95;47.28
65369;HTU21D;51970;53.484;49.488;2023-07-20T06:11:43;22.76;46.96
65369;HTU21D;51970;53.484;49.488;2023-07-20T06:14:09;22.70;47.89
65369;HTU21D;51970;53.484;49.488;2023-07-20T06:16:36;22.80;47.12
65369;HTU21D;51970;53.484;49.488;2023-07-20T06:19:02;22.92;47.03
65369;HTU21D;51970;53.484;49.488;2023-07-20T06:21:28;22.97;46.76
65369;HTU21D;51970;53.484;49.488;2023-07-20T06:23:54;22.91;46.34
65369;HTU21D;51970;53.484;49.488;2023-07-20T06:26:21;22.88;46.87
65369;HTU21D;51970;53.484;49.488;2023-07-20T06:28:47;22.77;46.53
65369;HTU21D;51970;53.484;49.488;2023-07-20T06:31:14;22.85;46.80
65369;HTU21D;51970;53.484;49.488;2023-07-20T06:33:40;23.15;45.91
65369;HTU21D;51970;53.484;49.488;2023-07-20T06:36:06;23.32;45.72
65369;HTU21D;51970;53.484;49.488;2023-07-20T06:38:32;23.46;45.31
65369;HTU21D;51970;53.484;49.488;2023-07-20T06:40:59;23.61;44.13
65369;HTU21D;51970;53.484;49.488;2023-07-20T06:46:41;23.75;43.84
65369;HTU21D;51970;53.484;49.488;2023-07-20T06:49:08;23.69;44.28
65369;HTU21D;51970;53.484;49.488;2023-07-20T06:51:34;23.86;44.96
65369;HTU21D;51970;53.484;49.488;2023-07-20T06:54:01;23.86;43.88
65369;HTU21D;51970;53.484;49.488;2023-07-20T06:56:27;23.72;44.82
65369;HTU21D;51970;53.484;49.488;2023-07-20T06:58:53;23.87;44.81
65369;HTU21D;51970;53.484;49.488;2023-07-20T07:01:19;23.83;43.82
65369;HTU21D;51970;53.484;49.488;2023-07-20T07:03:47;23.89;44.54
65369;HTU21D;51970;53.484;49.488;2023-07-20T07:06:13;24.14;43.55
65369;HTU21D;51970;53.484;49.488;2023-07-20T07:08:39;24.27;43.84
65369;HTU21D;51970;53.484;49.488;2023-07-20T07:11:06;24.51;42.68
65369;HTU21D;51970;53.484;49.488;2023-07-20T07:13:33;24.35;40.97
65369;HTU21D;51970;53.484;49.488;2023-07-20T07:15:59;24.21;41.95
65369;HTU21D;51970;53.484;49.488;2023-07-20T07:18:26;24.09;42.21
65369;HTU21D;51970;53.484;49.488;2023-07-20T07:20:53;24.08;40.91
65369;HTU21D;51970;53.484;49.488;2023-07-20T07:23:21;23.89;42.24
65369;HTU21D;51970;53.484;49.488;2023-07-20T07:25:47;23.88;42.46
65369;HTU21D;51970;53.484;49.488;2023-07-20T07:28:15;24.09;42.66
65369;HTU21D;51970;53.484;49.488;2023-07-20T07:30:41;24.27;41.20
65369;HTU21D;51970;53.484;49.488;2023-07-20T07:33:08;24.03;41.37
65369;HTU21D;51970;53.484;49.488;2023-07-20T07:35:36;23.95;41.78
65369;HTU21D;51970;53.484;49.488;2023-07-20T07:38:02;24.12;41.72
65369;HTU21D;51970;53.484;49.488;2023-07-20T07:40:29;24.21;41.52
65369;HTU21D;51970;53.484;49.488;2023-07-20T07:42:55;24.06;41.45
65369;HTU21D;51970;53.484;49.488;2023-07-20T07:45:21;24.17;41.56
65369;HTU21D;51970;53.484;49.488;2023-07-20T07:47:48;24.54;40.31
65369;HTU21D;51970;53.484;49.488;2023-07-20T07:50:14;24.77;40.01
65369;HTU21D;51970;53.484;49.488;2023-07-20T07:52:40;24.86;38.72
65369;HTU21D;51970;53.484;49.488;2023-07-20T07:55:07;24.73;39.64
65369;HTU21D;51970;53.484;49.488;2023-07-20T07:57:33;24.84;39.32
65369;HTU21D;51970;53.484;49.488;2023-07-20T07:59:59;24.80;39.30
65369;HTU21D;51970;53.484;49.488;2023-07-20T08:02:26;24.38;40.63
65369;HTU21D;51970;53.484;49.488;2023-07-20T08:04:52;24.44;39.75
65369;HTU21D;51970;53.484;49.488;2023-07-20T08:07:18;24.63;39.23
65369;HTU21D;51970;53.484;49.488;2023-07-20T08:09:44;24.83;39.47
65369;HTU21D;51970;53.484;49.488;2023-07-20T08:12:10;25.00;39.72
65369;HTU21D;51970;53.484;49.488;2023-07-20T08:14:37;25.13;39.96
65369;HTU21D;51970;53.484;49.488;2023-07-20T08:17:03;25.35;36.63
65369;HTU21D;51970;53.484;49.488;2023-07-20T08:19:30;25.31;37.25
65369;HTU21D;51970;53.484;49.488;2023-07-20T08:21:56;25.45;36.98
65369;HTU21D;51970;53.484;49.488;2023-07-20T08:24:22;25.60;36.52
65369;HTU21D;51970;53.484;49.488;2023-07-20T08:26:48;25.48;35.77
65369;HTU21D;51970;53.484;49.488;2023-07-20T08:29:15;25.36;35.05
65369;HTU21D;51970;53.484;49.488;2023-07-20T08:31:41;25.44;35.77
65369;HTU21D;51970;53.484;49.488;2023-07-20T08:34:07;25.66;35.35
65369;HTU21D;51970;53.484;49.488;2023-07-20T08:36:33;25.65;33.89
65369;HTU21D;51970;53.484;49.488;2023-07-20T08:39:00;25.63;33.80
65369;HTU21D;51970;53.484;49.488;2023-07-20T08:41:26;25.94;33.52
65369;HTU21D;51970;53.484;49.488;2023-07-20T08:43:54;25.84;32.67
65369;HTU21D;51970;53.484;49.488;2023-07-20T08:46:23;25.72;32.36
65369;HTU21D;51970;53.484;49.488;2023-07-20T08:48:50;25.76;32.99
65369;HTU21D;51970;53.484;49.488;2023-07-20T08:51:18;25.78;32.57
65369;HTU21D;51970;53.484;49.488;2023-07-20T08:53:46;25.40;34.08
65369;HTU21D;51970;53.484;49.488;2023-07-20T08:56:14;25.01;34.96
65369;HTU21D;51970;53.484;49.488;2023-07-20T08:58:43;25.00;36.93
65369;HTU21D;51970;53.484;49.488;2023-07-20T09:01:10;24.95;36.45
65369;HTU21D;51970;53.484;49.488;2023-07-20T09:03:38;25.04;36.05
65369;HTU21D;51970;53.484;49.488;2023-07-20T09:06:05;25.22;34.73
65369;HTU21D;51970;53.484;49.488;2023-07-20T09:08:31;25.02;35.41
65369;HTU21D;51970;53.484;49.488;2023-07-20T09:10:58;25.15;35.10
65369;HTU21D;51970;53.484;49.488;2023-07-20T09:13:25;25.87;33.53
65369;HTU21D;51970;53.484;49.488;2023-07-20T09:15:54;25.98;33.49
65369;HTU21D;51970;53.484;49.488;2023-07-20T09:18:28;25.89;34.16
65369;HTU21D;51970;53.484;49.488;2023-07-20T09:21:02;25.56;34.69
65369;HTU21D;51970;53.484;49.488;2023-07-20T09:23:30;25.50;34.89
65369;HTU21D;51970;53.484;49.488;2023-07-20T09:25:58;25.68;35.31
65369;HTU21D;51970;53.484;49.488;2023-07-20T09:28:24;25.72;34.12
65369;HTU21D;51970;53.484;49.488;2023-07-20T09:30:50;25.57;34.31
65369;HTU21D;51970;53.484;49.488;2023-07-20T09:33:23;25.39;34.68
65369;HTU21D;51970;53.484;49.488;2023-07-20T09:35:50;25.24;35.83
65369;HTU21D;51970;53.484;49.488;2023-07-20T09:38:17;25.00;35.23
65369;HTU21D;51970;53.484;49.488;2023-07-20T09:40:43;24.60;36.59
65369;HTU21D;51970;53.484;49.488;2023-07-20T09:43:10;24.44;35.62
65369;HTU21D;51970;53.484;49.488;2023-07-20T09:45:43;24.27;36.75
65369;HTU21D;51970;53.484;49.488;2023-07-20T09:48:10;24.26;36.38
65369;HTU21D;51970;53.484;49.488;2023-07-20T09:50:49;24.19;37.08
65369;HTU21D;51970;53.484;49.488;2023-07-20T09:53:17;24.49;36.40
65369;HTU21D;51970;53.484;49.488;2023-07-20T09:55:47;24.89;35.18
65369;HTU21D;51970;53.484;49.488;2023-07-20T09:58:14;25.21;35.27
65369;HTU21D;51970;53.484;49.488;2023-07-20T10:00:42;25.65;34.12
65369;HTU21D;51970;53.484;49.488;2023-07-20T10:03:18;26.04;31.28
65369;HTU21D;51970;53.484;49.488;2023-07-20T10:05:48;26.09;31.38
65369;HTU21D;51970;53.484;49.488;2023-07-20T10:08:19;26.23;32.80
65369;HTU21D;51970;53.484;49.488;2023-07-20T10:10:47;26.51;31.90
65369;HTU21D;51970;53.484;49.488;2023-07-20T10:13:27;26.13;33.28
65369;HTU21D;51970;53.484;49.488;2023-07-20T10:15:55;25.56;35.42
65369;HTU21D;51970;53.484;49.488;2023-07-20T10:18:29;25.17;36.85
65369;HTU21D;51970;53.484;49.488;2023-07-20T10:20:56;25.05;37.37
65369;HTU21D;51970;53.484;49.488;2023-07-20T10:23:24;25.02;36.28
65369;HTU21D;51970;53.484;49.488;2023-07-20T10:25:52;25.08;38.68
65369;HTU21D;51970;53.484;49.488;2023-07-20T10:28:19;25.27;38.70
65369;HTU21D;51970;53.484;49.488;2023-07-20T10:30:46;25.48;36.93
65369;HTU21D;51970;53.484;49.488;2023-07-20T10:33:13;25.59;36.95
65369;HTU21D;51970;53.484;49.488;2023-07-20T10:38:18;25.79;35.21
65369;HTU21D;51970;53.484;49.488;2023-07-20T10:40:54;25.90;34.68
65369;HTU21D;51970;53.484;49.488;2023-07-20T10:43:20;25.93;33.99
65369;HTU21D;51970;53.484;49.488;2023-07-20T10:45:52;25.87;33.18
65369;HTU21D;51970;53.484;49.488;2023-07-20T10:48:25;26.22;34.13
65369;HTU21D;51970;53.484;49.488;2023-07-20T10:51:13;26.21;35.04
65369;HTU21D;51970;53.484;49.488;2023-07-20T10:53:42;26.01;36.49
65369;HTU21D;51970;53.484;49.488;2023-07-20T10:56:12;26.06;35.84
65369;HTU21D;51970;53.484;49.488;2023-07-20T10:58:40;25.75;34.31
65369;HTU21D;51970;53.484;49.488;2023-07-20T11:01:08;25.45;35.18
65369;HTU21D;51970;53.484;49.488;2023-07-20T11:03:38;25.09;35.96
65369;HTU21D;51970;53.484;49.488;2023-07-20T11:09:07;25.35;35.97
65369;HTU21D;51970;53.484;49.488;2023-07-20T11:11:44;25.73;35.42
65369;HTU21D;51970;53.484;49.488;2023-07-20T11:14:20;25.58;35.76
65369;HTU21D;51970;53.484;49.488;2023-07-20T11:16:48;25.28;36.25
65369;HTU21D;51970;53.484;49.488;2023-07-20T11:19:22;25.33;36.46
65369;HTU21D;51970;53.484;49.488;2023-07-20T11:21:58;25.56;34.99
65369;HTU21D;51970;53.484;49.488;2023-07-20T11:24:24;25.51;35.92
65369;HTU21D;51970;53.484;49.488;2023-07-20T11:26:53;25.23;36.93
65369;HTU21D;51970;53.484;49.488;2023-07-20T11:29:21;25.09;37.69
65369;HTU21D;51970;53.484;49.488;2023-07-20T11:31:48;25.29;36.59
65369;HTU21D;51970;53.484;49.488;2023-07-20T11:34:20;25.60;36.05
65369;HTU21D;51970;53.484;49.488;2023-07-20T11:36:46;25.90;35.78
65369;HTU21D;51970;53.484;49.488;2023-07-20T11:39:15;26.26;34.89
65369;HTU21D;51970;53.484;49.488;2023-07-20T11:41:52;26.46;33.45
65369;HTU21D;51970;53.484;49.488;2023-07-20T11:44:20;26.50;33.38
65369;HTU21D;51970;53.484;49.488;2023-07-20T11:47:04;26.49;32.99
65369;HTU21D;51970;53.484;49.488;2023-07-20T11:49:35;26.62;33.70
65369;HTU21D;51970;53.484;49.488;2023-07-20T11:52:06;26.82;33.83
65369;HTU21D;51970;53.484;49.488;2023-07-20T11:54:34;26.81;32.51
65369;HTU21D;51970;53.484;49.488;2023-07-20T11:57:01;26.61;33.21
65369;HTU21D;51970;53.484;49.488;2023-07-20T11:59:28;26.31;34.79
65369;HTU21D;51970;53.484;49.488;2023-07-20T12:01:54;26.27;34.95
65369;HTU21D;51970;53.484;49.488;2023-07-20T12:04:23;26.12;34.47
65369;HTU21D;51970;53.484;49.488;2023-07-20T12:06:49;25.75;33.62
65369;HTU21D;51970;53.484;49.488;2023-07-20T12:09:16;25.33;36.01
65369;HTU21D;51970;53.484;49.488;2023-07-20T12:11:44;25.01;36.45
65369;HTU21D;51970;53.484;49.488;2023-07-20T12:14:11;24.75;38.04
65369;HTU21D;51970;53.484;49.488;2023-07-20T12:16:38;24.66;38.22
65369;HTU21D;51970;53.484;49.488;2023-07-20T12:19:05;24.74;38.01
65369;HTU21D;51970;53.484;49.488;2023-07-20T12:21:33;24.88;38.49
65369;HTU21D;51970;53.484;49.488;2023-07-20T12:24:00;24.92;39.08
65369;HTU21D;51970;53.484;49.488;2023-07-20T12:26:29;25.04;38.00
65369;HTU21D;51970;53.484;49.488;2023-07-20T12:28:55;25.24;37.02
65369;HTU21D;51970;53.484;49.488;2023-07-20T12:31:22;25.38;36.37
65369;HTU21D;51970;53.484;49.488;2023-07-20T12:33:50;25.62;35.66
65369;HTU21D;51970;53.484;49.488;2023-07-20T12:36:17;26.24;34.21
65369;HTU21D;51970;53.484;49.488;2023-07-20T12:38:44;26.32;32.91
65369;HTU21D;51970;53.484;49.488;2023-07-20T12:41:12;26.17;34.02
65369;HTU21D;51970;53.484;49.488;2023-07-20T12:43:43;26.04;33.79
65369;HTU21D;51970;53.484;49.488;2023-07-20T12:46:11;26.19;33.11
65369;HTU21D;51970;53.484;49.488;2023-07-20T12:48:39;26.13;33.47
65369;HTU21D;51970;53.484;49.488;2023-07-20T12:51:08;26.19;33.45
65369;HTU21D;51970;53.484;49.488;2023-07-20T12:53:34;26.17;32.74
65369;HTU21D;51970;53.484;49.488;2023-07-20T12:56:01;26.02;33.87
65369;HTU21D;51970;53.484;49.488;2023-07-20T12:58:27;26.10;33.76
65369;HTU21D;51970;53.484;49.488;2023-07-20T13:00:54;25.90;34.21
65369;HTU21D;51970;53.484;49.488;2023-07-20T13:03:20;25.53;34.06
65369;HTU21D;51970;53.484;49.488;2023-07-20T13:05:47;25.35;34.66
65369;HTU21D;51970;53.484;49.488;2023-07-20T13:08:14;25.13;35.39
65369;HTU21D;51970;53.484;49.488;2023-07-20T13:10:40;25.16;35.41
65369;HTU21D;51970;53.484;49.488;2023-07-20T13:13:07;25.29;34.81
65369;HTU21D;51970;53.484;49.488;2023-07-20T13:15:42;25.31;34.64
65369;HTU21D;51970;53.484;49.488;2023-07-20T13:18:08;25.43;34.21
65369;HTU21D;51970;53.484;49.488;2023-07-20T13:20:34;25.51;34.26
65369;HTU21D;51970;53.484;49.488;2023-07-20T13:23:01;25.73;34.29
65369;HTU21D;51970;53.484;49.488;2023-07-20T13:25:27;25.87;34.36
65369;HTU21D;51970;53.484;49.488;2023-07-20T13:27:54;25.83;34.72
65369;HTU21D;51970;53.484;49.488;2023-07-20T13:30:20;26.02;34.83
65369;HTU21D;51970;53.484;49.488;2023-07-20T13:32:47;25.99;34.42
65369;HTU21D;51970;53.484;49.488;2023-07-20T13:35:13;25.67;34.51
65369;HTU21D;51970;53.484;49.488;2023-07-20T13:37:41;25.61;35.46
65369;HTU21D;51970;53.484;49.488;2023-07-20T13:40:07;25.58;35.65
65369;HTU21D;51970;53.484;49.488;2023-07-20T13:42:37;25.61;35.89
65369;HTU21D;51970;53.484;49.488;2023-07-20T13:45:04;25.61;35.42
65369;HTU21D;51970;53.484;49.488;2023-07-20T13:47:31;25.54;35.50
65369;HTU21D;51970;53.484;49.488;2023-07-20T13:49:57;25.50;35.26
65369;HTU21D;51970;53.484;49.488;2023-07-20T13:52:23;25.43;35.65
65369;HTU21D;51970;53.484;49.488;2023-07-20T13:54:50;25.59;34.79
65369;HTU21D;51970;53.484;49.488;2023-07-20T13:57:16;25.72;35.00
65369;HTU21D;51970;53.484;49.488;2023-07-20T13:59:44;25.62;34.30
65369;HTU21D;51970;53.484;49.488;2023-07-20T14:02:11;25.45;35.08
65369;HTU21D;51970;53.484;49.488;2023-07-20T14:04:37;25.46;35.38
65369;HTU21D;51970;53.484;49.488;2023-07-20T14:07:03;25.57;35.69
65369;HTU21D;51970;53.484;49.488;2023-07-20T14:09:29;25.82;35.02
65369;HTU21D;51970;53.484;49.488;2023-07-20T14:11:56;26.50;34.37
65369;HTU21D;51970;53.484;49.488;2023-07-20T14:14:22;26.69;34.34
65369;HTU21D;51970;53.484;49.488;2023-07-20T14:16:48;26.87;34.26
65369;HTU21D;51970;53.484;49.488;2023-07-20T14:19:14;26.83;33.58
65369;HTU21D;51970;53.484;49.488;2023-07-20T14:21:41;26.17;35.28
65369;HTU21D;51970;53.484;49.488;2023-07-20T14:24:07;25.61;36.18
65369;HTU21D;51970;53.484;49.488;2023-07-20T14:26:33;25.21;37.06
65369;HTU21D;51970;53.484;49.488;2023-07-20T14:29:01;24.91;37.71
65369;HTU21D;51970;53.484;49.488;2023-07-20T14:31:27;24.74;38.07
65369;HTU21D;51970;53.484;49.488;2023-07-20T14:33:53;24.61;39.22
65369;HTU21D;51970;53.484;49.488;2023-07-20T14:36:19;24.45;39.16
65369;HTU21D;51970;53.484;49.488;2023-07-20T14:38:46;24.44;38.99
65369;HTU21D;51970;53.484;49.488;2023-07-20T14:41:12;24.82;39.25
65369;HTU21D;51970;53.484;49.488;2023-07-20T14:43:39;26.37;35.75
65369;HTU21D;51970;53.484;49.488;2023-07-20T14:46:05;27.73;33.08
65369;HTU21D;51970;53.484;49.488;2023-07-20T14:48:31;28.17;30.97
65369;HTU21D;51970;53.484;49.488;2023-07-20T14:50:58;28.62;30.15
65369;HTU21D;51970;53.484;49.488;2023-07-20T14:53:24;28.67;30.32
65369;HTU21D;51970;53.484;49.488;2023-07-20T14:56:00;28.61;29.74
65369;HTU21D;51970;53.484;49.488;2023-07-20T14:58:27;28.80;29.45
65369;HTU21D;51970;53.484;49.488;2023-07-20T15:00:53;28.67;29.67
65369;HTU21D;51970;53.484;49.488;2023-07-20T15:03:20;28.17;30.93
65369;HTU21D;51970;53.484;49.488;2023-07-20T15:05:46;27.28;32.96
65369;HTU21D;51970;53.484;49.488;2023-07-20T15:08:12;25.95;36.17
65369;HTU21D;51970;53.484;49.488;2023-07-20T15:10:38;25.16;37.57
65369;HTU21D;51970;53.484;49.488;2023-07-20T15:13:05;24.59;39.27
65369;HTU21D;51970;53.484;49.488;2023-07-20T15:15:31;24.27;40.51
65369;HTU21D;51970;53.484;49.488;2023-07-20T15:17:57;24.05;41.06
65369;HTU21D;51970;53.484;49.488;2023-07-20T15:20:24;23.91;41.73
65369;HTU21D;51970;53.484;49.488;2023-07-20T15:22:50;23.75;42.63
65369;HTU21D;51970;53.484;49.488;2023-07-20T15:25:16;23.69;41.77